EGGD - Bristol-Lulsgate
Distance from station: E 5mi, 14km
Updated: 02/17/2018 1:20pm
Mostly Cloudy
Mostly Cloudy
 Wind from S
Wind: S 6 mph , 9 km/h
Temperature: 43°F , 6°C
Wind Chill: 39°F , 4°C
Dew Point: 39°F , 4°C
Humidity: 87%
Barometer: 30.15 inHg , 1021 hPa
Clouds: Mostly Cloudy
Visibility: 6 miles , 10 km
Cloud details: Mostly Cloudy 3300 ft
Mostly Cloudy 4900 ft
2018/02/17 21:20 EGGD 172120Z AUTO 17005KT 9999 BKN033 BKN049 06/04 Q1021